createdAt,value
2018-11-01T00:01:41.137Z,5.2
2018-11-01T00:06:43.690Z,5.2
2018-11-01T00:11:46.058Z,5.2
2018-11-01T00:16:48.499Z,5.2
2018-11-01T00:21:50.968Z,5.2
2018-11-01T00:26:53.415Z,5.1
2018-11-01T00:31:55.894Z,5
2018-11-01T00:36:58.346Z,4.9
2018-11-01T00:42:00.811Z,4.8
2018-11-01T00:47:03.637Z,4.8
2018-11-01T00:52:05.825Z,4.7
2018-11-01T00:57:08.210Z,4.7
2018-11-01T01:02:10.737Z,4.7
2018-11-01T01:07:13.143Z,4.7
2018-11-01T01:12:15.591Z,4.6
2018-11-01T01:17:18.064Z,4.6
2018-11-01T01:22:20.535Z,4.5
2018-11-01T01:27:22.982Z,4.5
2018-11-01T01:32:25.458Z,4.5
2018-11-01T01:37:27.923Z,4.5
2018-11-01T01:42:30.368Z,4.4
2018-11-01T01:47:32.843Z,4.4
2018-11-01T01:52:35.365Z,4.3
2018-11-01T01:57:37.819Z,4.3
2018-11-01T02:02:40.230Z,4.3
2018-11-01T02:07:42.693Z,4.3
2018-11-01T02:12:45.162Z,4.3
2018-11-01T02:17:47.646Z,4.3
2018-11-01T02:22:50.084Z,4.2
2018-11-01T02:27:52.652Z,4.2
2018-11-01T02:32:55.045Z,4.2
2018-11-01T02:37:57.510Z,4.2
2018-11-01T02:42:59.967Z,4.2
2018-11-01T02:48:02.464Z,4.2
2018-11-01T02:53:04.887Z,4.2
2018-11-01T02:58:07.352Z,4.3
2018-11-01T03:03:09.812Z,4.3
2018-11-01T03:08:12.294Z,4.3
2018-11-01T03:13:14.753Z,4.4
2018-11-01T03:18:17.214Z,4.5
2018-11-01T03:23:19.836Z,4.5
2018-11-01T03:28:22.198Z,4.6
2018-11-01T03:33:24.600Z,4.7
2018-11-01T03:38:27.078Z,4.8
2018-11-01T03:43:29.552Z,5.2
2018-11-01T03:48:32.011Z,5.5
2018-11-01T03:53:34.608Z,5.6
2018-11-01T03:58:36.898Z,5.6
2018-11-01T04:03:39.410Z,5.6
2018-11-01T04:08:41.804Z,5.5
2018-11-01T04:13:44.374Z,5.5
2018-11-01T04:18:46.731Z,5.5
2018-11-01T04:23:49.179Z,5.6
2018-11-01T04:28:51.652Z,5.8
2018-11-01T04:33:54.120Z,6
2018-11-01T04:38:56.571Z,6.1
2018-11-01T04:43:59.022Z,6.2
2018-11-01T04:49:01.498Z,6.3
2018-11-01T04:54:03.928Z,6.3
2018-11-01T04:59:06.393Z,6.3
2018-11-01T05:04:08.952Z,6.2
2018-11-01T05:09:11.323Z,6.1
2018-11-01T05:14:13.886Z,6
2018-11-01T05:19:16.213Z,5.9
2018-11-01T05:24:18.684Z,5.7
2018-11-01T05:29:21.433Z,5.7
2018-11-01T05:34:23.642Z,5.6
2018-11-01T05:39:26.079Z,5.6
2018-11-01T05:44:28.559Z,5.6
2018-11-01T05:49:30.972Z,5.6
2018-11-01T05:54:33.456Z,5.6
2018-11-01T05:59:35.883Z,5.5
2018-11-01T06:04:38.362Z,5.6
2018-11-01T06:09:40.841Z,5.6
2018-11-01T06:14:43.259Z,5.6
2018-11-01T06:19:45.706Z,5.6
2018-11-01T06:24:48.179Z,5.6
2018-11-01T06:29:50.632Z,5.6
2018-11-01T06:34:53.100Z,5.7
2018-11-01T06:39:55.545Z,6.2
2018-11-01T06:44:58.104Z,7.8
2018-11-01T06:50:00.463Z,9.5
2018-11-01T07:00:05.387Z,9.6
2018-11-01T07:05:07.841Z,10.4
2018-11-01T07:10:10.315Z,11.9
2018-11-01T07:15:12.773Z,12.2
2018-11-01T07:20:15.209Z,12.4
2018-11-01T07:25:17.743Z,12.6
2018-11-01T07:30:20.114Z,14
2018-11-01T07:35:22.626Z,16.6
2018-11-01T07:40:25.052Z,18.3
2018-11-01T07:45:27.508Z,19.5
2018-11-01T07:50:29.966Z,20.6
2018-11-01T07:55:32.416Z,21.8
2018-11-01T08:00:34.874Z,22.4
2018-11-01T08:05:37.380Z,22.5
2018-11-01T08:10:39.804Z,21.8
2018-11-01T08:15:42.270Z,19.8
2018-11-01T08:20:44.864Z,17.8
2018-11-01T16:26:17.761Z,9.3
2018-11-01T16:31:20.209Z,9.2
2018-11-01T16:36:22.728Z,9.2
2018-11-01T16:41:25.137Z,9.6
2018-11-01T16:46:27.867Z,9.8
2018-11-01T16:51:30.070Z,10
2018-11-01T16:56:32.496Z,10.1
2018-11-01T17:01:34.963Z,10.1
2018-11-01T17:06:37.469Z,9.9
2018-11-01T17:11:39.879Z,10.1
2018-11-01T17:16:42.396Z,10.1
2018-11-01T17:21:44.825Z,10
2018-11-01T17:26:47.329Z,9.9
2018-11-01T17:31:49.715Z,9.8
2018-11-01T17:36:52.201Z,9.7
2018-11-01T17:41:54.621Z,9.6
2018-11-01T17:46:57.125Z,9.6
2018-11-01T17:51:59.622Z,9.4
2018-11-01T17:57:02.033Z,9.4
2018-11-01T18:02:04.560Z,9.3
2018-11-01T18:07:06.908Z,9.1
2018-11-01T18:12:09.377Z,9
2018-11-01T18:17:11.831Z,9
2018-11-01T18:22:14.347Z,8.9
2018-11-01T18:27:16.750Z,8.8
2018-11-01T18:32:19.368Z,8.7
2018-11-01T18:37:21.657Z,8.5
2018-11-01T18:42:24.239Z,8.7
2018-11-01T18:47:26.567Z,8.6
2018-11-01T18:52:29.086Z,8.6
2018-11-01T18:57:31.484Z,8.8
2018-11-01T19:02:33.953Z,8.9
2018-11-01T19:07:36.408Z,9
2018-11-01T19:12:38.910Z,9
2018-11-01T19:22:43.793Z,9.1
2018-11-01T19:27:46.299Z,9
2018-11-01T19:32:49.117Z,9.1
2018-11-01T19:37:51.180Z,9.2
2018-11-01T19:42:53.628Z,9.4
2018-11-01T19:47:56.085Z,9.4
2018-11-01T19:52:58.517Z,9.5
2018-11-01T19:58:01.012Z,9.6
2018-11-01T20:03:03.468Z,9.7
2018-11-01T20:08:05.964Z,9.7
2018-11-01T20:13:08.355Z,9.8
2018-11-01T20:18:10.810Z,9.8
2018-11-01T20:23:13.411Z,9.7
2018-11-01T20:28:15.723Z,9.6
2018-11-01T20:33:18.190Z,9.7
2018-11-01T20:38:20.755Z,9.7
2018-11-01T20:43:23.093Z,9.8
2018-11-01T20:48:25.541Z,9.7
2018-11-01T20:53:28.041Z,9.6
2018-11-01T20:58:30.489Z,9.6
2018-11-01T21:03:32.937Z,9.5
2018-11-01T21:08:35.381Z,9.5
2018-11-01T21:13:37.860Z,9.3
2018-11-01T21:18:40.298Z,9.2
2018-11-01T21:23:42.755Z,9.1
2018-11-01T21:28:45.207Z,8.9
2018-11-01T21:33:47.659Z,8.6
2018-11-01T21:38:50.147Z,8.5
2018-11-01T21:43:52.632Z,8.3
2018-11-01T21:48:55.040Z,8.1
2018-11-01T21:53:57.513Z,7.9
2018-11-01T21:58:59.985Z,7.9
2018-11-01T22:04:02.422Z,7.9
2018-11-01T22:09:05.007Z,7.9
2018-11-01T22:14:07.349Z,7.9
2018-11-01T22:19:09.780Z,8
2018-11-01T22:24:12.236Z,8.1
2018-11-01T22:29:14.799Z,8.1
2018-11-01T22:34:17.176Z,8.2
2018-11-01T22:39:19.621Z,8.2
2018-11-01T22:44:22.088Z,8.1
2018-11-01T22:49:24.536Z,7.9
2018-11-01T22:54:26.982Z,7.7
2018-11-01T22:59:29.444Z,7.6
2018-11-01T23:04:31.934Z,7.7
2018-11-01T23:09:34.360Z,7.9
2018-11-01T23:14:36.818Z,8.1
2018-11-01T23:19:39.307Z,8.3
2018-11-01T23:24:41.720Z,8.5
2018-11-01T23:29:44.202Z,8.7
2018-11-01T23:34:46.648Z,8.8
2018-11-01T23:39:49.101Z,8.9
2018-11-01T23:44:51.595Z,9
2018-11-01T23:49:54.025Z,9
2018-11-01T23:54:56.465Z,9
2018-11-01T23:59:58.948Z,9
